Terminal Aerodrome Forecast
Issued by NWS

Home | Current Version | Previous Version | Text Only | Print | Product List | Glossary On
Versions: 1 2 3 4 5 6 7 8 9 10 11 12 13
000
FTUS45 KMSO 242200 AAA
TAFSMN
TAF AMD
KSMN 242212Z 2422/2518 20012G22KT P6SM VCSH OVC070
     FM250200 25010KT P6SM VCSH OVC070
      TEMPO 2502/2503 -TSRA OVC070CB
     FM250300 VRB06KT P6SM BKN050 OVC100
      AMD LTD TO CLD VIS AND WIND=

USA.gov is the U.S. government's official web portal to all federal, state and local government web resources and services.